createdAt,value
2018-05-18T00:00:53.860Z,8.40
2018-05-18T00:03:22.316Z,8.40
2018-05-18T00:05:50.764Z,8.40
2018-05-18T00:08:19.325Z,8.40
2018-05-18T00:10:47.986Z,8.30
2018-05-18T00:13:16.418Z,8.40
2018-05-18T00:15:44.874Z,8.30
2018-05-18T00:18:13.325Z,8.30
2018-05-18T00:20:41.986Z,8.30
2018-05-18T00:23:11.219Z,8.20
2018-05-18T00:25:39.669Z,8.10
2018-05-18T00:28:08.130Z,8.10
2018-05-18T00:30:36.588Z,8.10
2018-05-18T00:33:05.045Z,8.10
2018-05-18T00:35:33.514Z,8.20
2018-05-18T00:38:01.968Z,8.20
2018-05-18T00:40:30.891Z,8.00
2018-05-18T00:42:59.309Z,8.00
2018-05-18T00:45:27.897Z,8.00
2018-05-18T00:47:56.113Z,8.00
2018-05-18T00:50:25.366Z,8.00
2018-05-18T00:52:54.097Z,7.90
2018-05-18T00:55:34.644Z,8.00
2018-05-18T00:58:03.108Z,7.90
2018-05-18T01:00:31.761Z,8.00
2018-05-18T01:03:00.227Z,8.00
2018-05-18T01:05:28.689Z,8.00
2018-05-18T01:07:58.111Z,7.90
2018-05-18T01:10:27.659Z,7.90
2018-05-18T01:12:56.094Z,7.90
2018-05-18T01:15:25.509Z,7.80
2018-05-18T01:17:54.110Z,7.80
2018-05-18T01:20:22.569Z,7.80
2018-05-18T01:22:51.014Z,7.70
2018-05-18T01:25:19.765Z,7.60
2018-05-18T01:27:48.353Z,7.50
2018-05-18T01:30:16.818Z,7.50
2018-05-18T01:32:45.262Z,7.50
2018-05-18T01:35:13.726Z,7.50
2018-05-18T01:37:41.877Z,7.40
2018-05-18T01:40:10.335Z,5.90
2018-05-18T01:42:38.445Z,7.30
2018-05-18T01:45:07.021Z,7.30
2018-05-18T01:47:35.562Z,7.40
2018-05-18T01:50:06.429Z,7.40
2018-05-18T01:52:34.880Z,7.30
2018-05-18T01:55:03.752Z,7.40
2018-05-18T01:57:33.118Z,7.30
2018-05-18T02:00:01.627Z,7.30
2018-05-18T02:02:30.341Z,7.30
2018-05-18T02:04:59.580Z,7.30
2018-05-18T02:07:28.106Z,7.30
2018-05-18T02:09:56.738Z,7.40
2018-05-18T02:12:25.193Z,7.40
2018-05-18T02:14:54.781Z,7.50
2018-05-18T02:17:23.230Z,7.40
2018-05-18T02:19:51.880Z,7.40
2018-05-18T02:22:20.424Z,7.30
2018-05-18T02:24:49.653Z,7.30
2018-05-18T02:27:18.873Z,7.30
2018-05-18T02:29:47.340Z,7.30
2018-05-18T02:32:16.573Z,7.30
2018-05-18T02:34:45.122Z,7.30
2018-05-18T02:37:14.533Z,7.40
2018-05-18T02:39:43.148Z,7.30
2018-05-18T02:42:11.791Z,7.40
2018-05-18T02:44:41.209Z,7.20
2018-05-18T02:47:10.434Z,7.00
2018-05-18T02:49:39.033Z,6.90
2018-05-18T02:52:07.503Z,7.00
2018-05-18T02:54:36.023Z,6.90
2018-05-18T02:57:04.515Z,6.90
2018-05-18T02:59:33.163Z,6.90
2018-05-18T03:02:01.645Z,6.90
2018-05-18T03:04:30.113Z,6.90
2018-05-18T03:06:59.501Z,6.90
2018-05-18T03:09:27.981Z,6.80
2018-05-18T03:11:57.385Z,6.80
2018-05-18T03:14:25.868Z,6.80
2018-05-18T03:16:55.175Z,6.80
2018-05-18T03:19:23.959Z,6.70
2018-05-18T03:21:53.161Z,6.70
2018-05-18T03:24:21.624Z,6.70
2018-05-18T03:26:50.862Z,6.70
2018-05-18T03:29:19.336Z,6.60
2018-05-18T03:31:47.811Z,6.60
2018-05-18T03:34:16.355Z,6.60
2018-05-18T03:36:45.180Z,6.50
2018-05-18T03:39:14.385Z,6.50
2018-05-18T03:41:42.853Z,6.50
2018-05-18T03:44:12.072Z,6.50
2018-05-18T03:46:40.538Z,6.50
2018-05-18T03:49:09.760Z,6.40
2018-05-18T03:51:38.216Z,6.30
2018-05-18T03:54:07.422Z,6.60
2018-05-18T03:56:36.652Z,6.50
2018-05-18T03:59:05.110Z,6.50
2018-05-18T04:01:45.121Z,6.40
2018-05-18T04:04:25.117Z,6.40
2018-05-18T04:20:22.001Z,6.50
2018-05-18T04:22:50.462Z,6.60
2018-05-18T04:25:19.128Z,6.70
2018-05-18T04:27:47.646Z,6.80
2018-05-18T04:30:16.129Z,6.80
2018-05-18T04:32:44.556Z,6.90
2018-05-18T04:35:13.781Z,6.70
2018-05-18T04:37:42.274Z,6.70
2018-05-18T04:40:10.727Z,6.80
2018-05-18T04:42:40.137Z,7.10
2018-05-18T04:45:09.382Z,7.10
2018-05-18T04:47:37.989Z,7.00
2018-05-18T04:50:06.488Z,7.20
2018-05-18T04:52:34.989Z,7.30
2018-05-18T04:55:04.118Z,7.20
2018-05-18T04:57:32.562Z,7.20
2018-05-18T05:00:01.905Z,7.40
2018-05-18T05:02:30.362Z,7.40
2018-05-18T05:04:58.812Z,7.50
2018-05-18T05:07:27.261Z,7.70
2018-05-18T05:09:55.765Z,7.80
2018-05-18T05:12:24.220Z,7.90
2018-05-18T05:14:52.895Z,8.00
2018-05-18T05:17:21.339Z,8.10
2018-05-18T05:19:50.225Z,8.20
2018-05-18T05:22:18.720Z,8.10
2018-05-18T05:24:47.996Z,8.40
2018-05-18T05:27:16.501Z,8.30
2018-05-18T05:29:44.964Z,8.50
2018-05-18T05:32:13.405Z,8.60
2018-05-18T05:34:42.052Z,8.60
2018-05-18T05:37:11.424Z,8.90
2018-05-18T05:39:39.874Z,8.80
2018-05-18T05:42:08.596Z,8.90
2018-05-18T05:44:37.064Z,9.00
2018-05-18T05:47:05.533Z,9.00
2018-05-18T05:49:33.976Z,9.10
2018-05-18T05:52:03.240Z,9.40
2018-05-18T05:54:31.999Z,9.40
2018-05-18T05:57:01.377Z,9.70
2018-05-18T05:59:30.579Z,9.70
2018-05-18T06:01:59.049Z,9.60
2018-05-18T06:04:28.281Z,10.00
2018-05-18T06:06:56.713Z,9.90
2018-05-18T06:09:25.174Z,10.20
2018-05-18T06:11:53.649Z,10.30
2018-05-18T06:14:22.119Z,10.30
2018-05-18T06:16:50.557Z,10.30
2018-05-18T06:19:20.001Z,10.20
2018-05-18T06:21:49.385Z,10.30
2018-05-18T06:24:17.828Z,10.20
2018-05-18T06:26:46.285Z,10.50
2018-05-18T06:29:14.742Z,10.60
2018-05-18T06:31:43.212Z,10.50
2018-05-18T06:34:11.665Z,10.50
2018-05-18T06:36:40.294Z,10.40
2018-05-18T06:39:09.700Z,10.90
2018-05-18T06:41:38.329Z,10.80
2018-05-18T06:44:07.564Z,11.10
2018-05-18T06:46:36.061Z,11.00
2018-05-18T06:49:04.169Z,11.20
2018-05-18T06:51:32.827Z,11.10
2018-05-18T06:54:01.485Z,11.20
2018-05-18T06:56:30.812Z,11.20
2018-05-18T06:58:59.257Z,11.20
2018-05-18T07:01:28.610Z,11.30
2018-05-18T07:03:57.197Z,11.30
2018-05-18T07:06:26.623Z,11.50
2018-05-18T07:08:55.052Z,11.40
2018-05-18T07:11:24.488Z,11.80
2018-05-18T07:13:52.972Z,11.80
2018-05-18T07:16:21.624Z,11.90
2018-05-18T07:18:51.020Z,12.00
2018-05-18T07:21:20.304Z,12.00
2018-05-18T07:23:48.736Z,12.00
2018-05-18T07:26:17.300Z,12.30
2018-05-18T07:28:45.747Z,12.00
2018-05-18T07:31:14.233Z,11.90
2018-05-18T07:33:42.676Z,12.00
2018-05-18T07:36:10.865Z,11.90
2018-05-18T07:38:39.540Z,12.10
2018-05-18T07:41:07.987Z,12.20
2018-05-18T07:43:37.211Z,12.40
2018-05-18T07:46:05.489Z,12.40
2018-05-18T07:48:34.025Z,12.70
2018-05-18T07:51:02.561Z,12.90
2018-05-18T07:53:31.136Z,12.80
2018-05-18T07:56:00.557Z,12.90
2018-05-18T07:58:28.981Z,12.80
2018-05-18T08:00:57.449Z,13.00
2018-05-18T08:03:26.068Z,12.90
2018-05-18T08:05:55.283Z,13.00
2018-05-18T08:08:24.060Z,12.90
2018-05-18T08:10:53.365Z,13.10
2018-05-18T08:13:21.828Z,13.00
2018-05-18T08:15:51.027Z,13.50
2018-05-18T08:18:19.713Z,13.50
2018-05-18T08:20:48.157Z,13.70
2018-05-18T08:23:16.661Z,13.70
2018-05-18T08:25:46.001Z,13.30
2018-05-18T08:28:14.464Z,13.30
2018-05-18T08:30:55.029Z,13.40
2018-05-18T08:33:24.274Z,13.30
2018-05-18T08:35:52.825Z,13.30
2018-05-18T08:38:22.036Z,13.80
2018-05-18T08:40:50.501Z,13.80
2018-05-18T08:43:19.708Z,14.40
2018-05-18T08:45:49.008Z,14.20
2018-05-18T08:48:18.208Z,14.00
2018-05-18T08:50:47.540Z,14.30
2018-05-18T08:53:16.180Z,14.30
2018-05-18T08:55:44.641Z,14.20
2018-05-18T08:58:13.140Z,14.40
2018-05-18T09:00:41.642Z,14.20
2018-05-18T09:03:10.256Z,14.30
2018-05-18T09:05:38.716Z,14.50
2018-05-18T09:08:07.401Z,14.50
2018-05-18T09:10:36.769Z,14.30
2018-05-18T09:13:05.430Z,14.20
2018-05-18T09:15:33.852Z,14.30
2018-05-18T09:18:02.309Z,14.70
2018-05-18T09:20:31.017Z,15.00
2018-05-18T09:22:59.493Z,15.10
2018-05-18T09:25:27.926Z,15.00
2018-05-18T09:27:56.384Z,14.50
2018-05-18T09:30:25.691Z,14.70
2018-05-18T09:32:54.954Z,14.70
2018-05-18T09:35:23.606Z,14.60
2018-05-18T09:37:52.050Z,15.10
2018-05-18T09:40:21.269Z,15.20
2018-05-18T09:42:49.731Z,15.10
2018-05-18T09:45:18.238Z,15.20
2018-05-18T09:47:46.921Z,15.50
2018-05-18T09:50:16.185Z,15.50
2018-05-18T09:52:44.765Z,15.50
2018-05-18T09:55:13.538Z,15.20
2018-05-18T09:57:41.953Z,15.30
2018-05-18T10:00:11.165Z,15.70
2018-05-18T10:02:40.403Z,15.90
2018-05-18T10:05:08.911Z,15.90
2018-05-18T10:07:37.538Z,16.10
2018-05-18T10:10:06.748Z,16.10
2018-05-18T10:12:36.184Z,16.20
2018-05-18T10:15:04.309Z,16.10
2018-05-18T10:17:33.569Z,16.20
2018-05-18T10:20:02.093Z,16.20
2018-05-18T10:22:31.318Z,16.20
2018-05-18T10:24:59.841Z,16.20
2018-05-18T10:27:28.406Z,16.20
2018-05-18T10:29:56.866Z,16.90
2018-05-18T10:32:25.420Z,16.70
2018-05-18T10:34:54.684Z,16.90
2018-05-18T10:37:23.126Z,16.80
2018-05-18T10:39:51.568Z,17.20
2018-05-18T10:42:20.270Z,17.40
2018-05-18T10:44:49.750Z,17.00
2018-05-18T10:47:18.320Z,17.00
2018-05-18T10:49:46.769Z,17.00
2018-05-18T10:52:15.237Z,16.60
2018-05-18T10:54:44.446Z,16.50
2018-05-18T11:12:09.984Z,16.40
2018-05-18T11:49:31.612Z,17.50
2018-05-18T11:52:00.073Z,17.60
2018-05-18T11:54:29.557Z,17.70
2018-05-18T11:56:58.120Z,17.70
2018-05-18T12:16:53.540Z,17.60
2018-05-18T13:09:14.555Z,19.00
2018-05-18T13:11:43.093Z,18.70
2018-05-18T13:14:12.396Z,19.30
2018-05-18T13:16:41.735Z,19.10
2018-05-18T13:19:11.133Z,19.10
2018-05-18T13:21:39.315Z,19.10
2018-05-18T13:24:08.761Z,19.90
2018-05-18T13:26:37.269Z,19.80
2018-05-18T13:29:06.162Z,19.40
2018-05-18T13:31:35.766Z,19.50
2018-05-18T13:34:05.258Z,19.70
2018-05-18T13:36:33.715Z,19.70
2018-05-18T13:39:02.207Z,19.50
2018-05-18T13:41:30.669Z,19.70
2018-05-18T13:43:59.109Z,19.20
2018-05-18T13:46:28.526Z,19.80
2018-05-18T13:48:57.036Z,19.70
2018-05-18T13:51:25.510Z,19.40
2018-05-18T13:53:54.317Z,20.10
2018-05-18T13:56:22.823Z,20.50
2018-05-18T13:58:51.333Z,20.50
2018-05-18T14:01:20.557Z,19.40
2018-05-18T14:03:49.039Z,19.40
2018-05-18T14:06:17.487Z,19.90
2018-05-18T14:08:46.820Z,20.30
2018-05-18T14:23:42.880Z,20.50
2018-05-18T14:26:11.389Z,20.10
2018-05-18T14:28:40.601Z,20.00
2018-05-18T14:31:09.866Z,20.60
2018-05-18T14:33:38.337Z,20.60
2018-05-18T14:36:06.796Z,20.40
2018-05-18T14:38:36.253Z,19.90
2018-05-18T14:41:04.932Z,19.90
2018-05-18T14:43:33.773Z,20.40
2018-05-18T14:46:02.216Z,20.30
2018-05-18T14:48:31.588Z,20.80
2018-05-18T14:51:00.337Z,20.80
2018-05-18T14:53:29.523Z,20.30
2018-05-18T14:55:58.665Z,20.20
2018-05-18T14:58:27.137Z,19.90
2018-05-18T15:00:57.417Z,19.90
2018-05-18T15:03:26.842Z,19.80
2018-05-18T15:05:55.304Z,19.80
2018-05-18T15:08:24.537Z,20.30
2018-05-18T15:10:53.014Z,20.20
2018-05-18T15:13:22.426Z,20.20
2018-05-18T15:15:50.973Z,20.20
2018-05-18T15:18:20.262Z,20.50
2018-05-18T15:20:49.508Z,20.60
2018-05-18T15:23:18.056Z,20.60
2018-05-18T15:25:47.280Z,19.70
